createdAt,value
2019-05-20T00:00:04.360Z,49.90
2019-05-20T00:02:30.562Z,49.80
2019-05-20T00:04:56.796Z,50.50
2019-05-20T00:07:23.021Z,49.80
2019-05-20T00:09:49.254Z,49.80
2019-05-20T00:12:15.476Z,49.70
2019-05-20T00:14:41.717Z,49.70
2019-05-20T00:17:07.954Z,49.70
2019-05-20T00:19:34.156Z,49.70
2019-05-20T00:22:00.416Z,49.70
2019-05-20T00:24:26.627Z,49.70
2019-05-20T00:26:52.853Z,49.60
2019-05-20T00:29:19.072Z,49.60
2019-05-20T00:31:45.321Z,49.60
2019-05-20T00:34:11.541Z,49.60
2019-05-20T00:36:37.765Z,49.60
2019-05-20T00:39:04.002Z,49.60
2019-05-20T00:41:30.224Z,49.60
2019-05-20T00:43:56.480Z,49.60
2019-05-20T00:46:22.692Z,49.50
2019-05-20T00:48:48.912Z,49.50
2019-05-20T00:51:15.141Z,49.50
2019-05-20T00:53:41.376Z,49.50
2019-05-20T00:56:07.593Z,49.50
2019-05-20T00:58:33.824Z,49.50
2019-05-20T01:01:00.077Z,49.50
2019-05-20T01:03:27.518Z,49.40
2019-05-20T01:05:53.742Z,49.40
2019-05-20T01:08:19.981Z,49.50
2019-05-20T01:10:46.137Z,49.50
2019-05-20T01:13:12.433Z,49.50
2019-05-20T01:15:39.073Z,49.50
2019-05-20T01:18:05.293Z,49.40
2019-05-20T01:20:31.528Z,49.50
2019-05-20T01:22:57.750Z,49.40
2019-05-20T01:25:23.973Z,49.40
2019-05-20T01:27:50.210Z,49.40
2019-05-20T01:30:16.382Z,49.40
2019-05-20T01:32:42.673Z,49.40
2019-05-20T01:35:08.893Z,49.30
2019-05-20T01:37:35.156Z,49.40
2019-05-20T01:40:02.244Z,49.40
2019-05-20T01:42:28.818Z,49.30
2019-05-20T01:44:56.267Z,49.30
2019-05-20T01:47:22.503Z,49.30
2019-05-20T01:49:48.733Z,49.30
2019-05-20T01:52:14.949Z,49.30
2019-05-20T01:54:41.174Z,49.30
2019-05-20T01:57:07.407Z,49.30
2019-05-20T01:59:33.640Z,49.20
2019-05-20T02:01:59.865Z,49.20
2019-05-20T02:04:26.092Z,49.20
2019-05-20T02:06:52.320Z,49.20
2019-05-20T02:09:18.465Z,49.30
2019-05-20T02:11:44.777Z,49.30
2019-05-20T02:14:11.009Z,49.30
2019-05-20T02:16:37.231Z,49.20
2019-05-20T02:19:03.487Z,49.30
2019-05-20T02:21:29.688Z,49.30
2019-05-20T02:23:55.911Z,49.30
2019-05-20T02:26:22.155Z,49.30
2019-05-20T02:28:48.382Z,49.30
2019-05-20T02:31:15.028Z,49.30
2019-05-20T02:33:51.581Z,49.90
2019-05-20T02:36:07.472Z,49.30
2019-05-20T02:38:33.710Z,49.30
2019-05-20T02:40:59.939Z,49.30
2019-05-20T02:43:26.170Z,49.30
2019-05-20T02:45:52.329Z,49.20
2019-05-20T02:48:18.510Z,49.30
2019-05-20T02:50:44.850Z,49.20
2019-05-20T02:53:11.093Z,49.30
2019-05-20T02:55:37.313Z,49.20
2019-05-20T02:58:03.543Z,49.30
2019-05-20T03:00:29.766Z,49.20
2019-05-20T03:02:56.010Z,49.20
2019-05-20T03:05:22.221Z,49.20
2019-05-20T03:07:48.440Z,49.30
2019-05-20T03:10:14.680Z,49.30
2019-05-20T03:12:40.917Z,49.30
2019-05-20T03:15:08.356Z,49.30
2019-05-20T03:17:34.602Z,49.10
2019-05-20T03:20:00.813Z,49.30
2019-05-20T03:22:27.051Z,49.30
2019-05-20T03:24:53.280Z,49.20
2019-05-20T03:27:19.510Z,49.20
2019-05-20T03:29:45.745Z,49.30
2019-05-20T03:32:13.190Z,49.30
2019-05-20T03:34:47.978Z,49.30
2019-05-20T03:37:05.653Z,49.30
2019-05-20T03:39:31.872Z,49.30
2019-05-20T03:41:58.101Z,49.30
2019-05-20T03:44:24.335Z,49.30
2019-05-20T03:46:50.490Z,49.30
2019-05-20T03:49:16.803Z,49.30
2019-05-20T03:51:43.022Z,49.30
2019-05-20T03:54:09.251Z,49.40
2019-05-20T03:56:35.481Z,49.40
2019-05-20T03:59:01.746Z,49.40
2019-05-20T04:01:27.933Z,49.40
2019-05-20T04:03:54.158Z,49.50
2019-05-20T04:06:20.397Z,49.50
2019-05-20T04:08:46.691Z,49.40
2019-05-20T04:11:12.845Z,49.50
2019-05-20T04:13:39.075Z,49.50
2019-05-20T04:16:05.303Z,49.50
2019-05-20T04:18:31.530Z,49.60
2019-05-20T04:20:57.836Z,49.60
2019-05-20T04:23:24.026Z,49.60
2019-05-20T04:25:50.234Z,49.60
2019-05-20T04:28:16.450Z,49.60
2019-05-20T04:30:42.681Z,49.60
2019-05-20T04:33:08.909Z,49.60
2019-05-20T04:35:35.068Z,49.60
2019-05-20T04:38:01.278Z,49.60
2019-05-20T04:40:27.590Z,49.60
2019-05-20T04:42:53.820Z,49.70
2019-05-20T04:45:20.039Z,49.70
2019-05-20T04:47:46.266Z,49.70
2019-05-20T04:50:12.498Z,49.70
2019-05-20T04:52:38.649Z,49.70
2019-05-20T04:55:04.957Z,49.70
2019-05-20T04:57:31.191Z,49.70
2019-05-20T04:59:57.433Z,49.70
2019-05-20T05:02:23.644Z,49.70
2019-05-20T05:04:49.884Z,49.70
2019-05-20T05:07:16.092Z,49.70
2019-05-20T05:09:42.324Z,49.80
2019-05-20T05:12:08.549Z,49.80
2019-05-20T05:14:34.795Z,49.70
2019-05-20T05:17:01.013Z,49.80
2019-05-20T05:19:27.240Z,49.70
2019-05-20T05:21:53.477Z,49.70
2019-05-20T05:24:19.695Z,49.70
2019-05-20T05:26:47.858Z,49.70
2019-05-20T05:29:12.561Z,49.70
2019-05-20T05:31:38.726Z,49.70
2019-05-20T05:34:05.021Z,49.80
2019-05-20T05:36:31.249Z,49.80
2019-05-20T05:38:57.489Z,49.80
2019-05-20T05:41:23.713Z,49.70
2019-05-20T05:43:49.945Z,49.80
2019-05-20T05:46:16.174Z,49.80
2019-05-20T05:48:42.394Z,49.80
2019-05-20T05:51:08.618Z,49.90
2019-05-20T05:53:34.851Z,49.80
2019-05-20T05:56:01.089Z,49.90
2019-05-20T05:58:27.302Z,49.90
2019-05-20T06:00:53.543Z,50.00
2019-05-20T06:03:19.790Z,50.00
2019-05-20T06:05:45.990Z,50.00
2019-05-20T06:08:12.228Z,50.00
2019-05-20T06:10:38.459Z,50.10
2019-05-20T06:13:04.942Z,50.00
2019-05-20T06:15:31.317Z,50.10
2019-05-20T06:17:57.544Z,50.20
2019-05-20T06:20:23.774Z,50.10
2019-05-20T06:22:50.002Z,50.10
2019-05-20T06:25:16.230Z,50.10
2019-05-20T06:27:42.455Z,50.10
2019-05-20T06:30:08.686Z,50.20
2019-05-20T06:32:34.925Z,50.10
2019-05-20T06:35:01.190Z,50.10
2019-05-20T06:37:27.391Z,50.20
2019-05-20T06:39:54.067Z,50.10
2019-05-20T06:42:20.247Z,50.10
2019-05-20T06:44:52.988Z,50.10
2019-05-20T06:47:12.699Z,50.10
2019-05-20T06:49:38.925Z,50.10
2019-05-20T06:52:05.151Z,50.10
2019-05-20T06:54:31.404Z,50.20
2019-05-20T06:56:57.638Z,50.10
2019-05-20T06:59:23.844Z,50.20
2019-05-20T07:01:50.075Z,50.20
2019-05-20T07:04:16.295Z,50.20
2019-05-20T07:06:46.412Z,50.20
2019-05-20T07:09:08.779Z,50.30
2019-05-20T07:11:35.800Z,50.30
2019-05-20T07:14:02.020Z,50.20
2019-05-20T07:16:28.261Z,50.30
2019-05-20T07:18:54.489Z,50.30
2019-05-20T07:21:20.709Z,50.30
2019-05-20T07:23:46.954Z,50.30
2019-05-20T07:26:13.165Z,50.30
2019-05-20T07:28:39.417Z,50.30
2019-05-20T07:31:05.642Z,50.40
2019-05-20T07:33:33.088Z,50.40
2019-05-20T07:35:59.331Z,50.30
2019-05-20T07:38:25.526Z,50.30
2019-05-20T07:40:51.770Z,50.40
2019-05-20T07:43:19.276Z,50.40
2019-05-20T07:45:45.463Z,50.40
2019-05-20T07:48:11.677Z,50.30
2019-05-20T07:50:37.925Z,50.40
2019-05-20T07:53:04.141Z,50.40
2019-05-20T07:55:30.385Z,50.40
2019-05-20T07:57:56.597Z,50.40
2019-05-20T08:00:22.831Z,50.50
2019-05-20T08:02:49.060Z,50.50
2019-05-20T08:05:15.327Z,50.50
2019-05-20T08:07:51.799Z,51.30
2019-05-20T08:10:07.829Z,50.60
2019-05-20T08:12:34.005Z,50.60
2019-05-20T08:15:00.198Z,50.50
2019-05-20T08:17:26.425Z,50.70
2019-05-20T08:19:52.653Z,50.60
2019-05-20T08:22:18.894Z,50.60
2019-05-20T08:24:45.125Z,50.80
2019-05-20T08:27:11.340Z,50.70
2019-05-20T08:29:37.961Z,50.70
2019-05-20T08:32:04.209Z,50.80
2019-05-20T08:34:30.784Z,50.70
2019-05-20T08:36:56.657Z,50.90
2019-05-20T08:39:22.884Z,50.80
2019-05-20T08:41:49.128Z,50.80
2019-05-20T08:44:15.354Z,50.80
2019-05-20T08:46:41.589Z,50.80
2019-05-20T08:49:11.257Z,50.80
2019-05-20T08:51:34.036Z,50.90
2019-05-20T08:54:00.280Z,50.90
2019-05-20T08:56:26.492Z,50.90
2019-05-20T08:58:52.736Z,50.90
2019-05-20T09:01:18.949Z,50.90
2019-05-20T09:03:45.173Z,50.90
2019-05-20T09:06:11.427Z,51.10
2019-05-20T09:08:37.652Z,51.00
2019-05-20T09:11:03.821Z,51.30
2019-05-20T09:13:30.110Z,51.20
2019-05-20T09:15:57.569Z,51.30
2019-05-20T09:18:23.784Z,51.30
2019-05-20T09:20:50.006Z,51.10
2019-05-20T09:23:16.262Z,51.10
2019-05-20T09:25:42.468Z,51.10
2019-05-20T09:28:08.715Z,51.30
2019-05-20T09:30:36.226Z,51.20
2019-05-20T09:33:02.392Z,51.20
2019-05-20T09:35:28.646Z,51.20
2019-05-20T09:37:54.837Z,51.30
2019-05-20T09:40:21.079Z,51.20
2019-05-20T09:42:47.326Z,51.20
2019-05-20T09:45:13.935Z,51.30
2019-05-20T09:47:41.384Z,51.30
2019-05-20T09:50:07.620Z,51.30
2019-05-20T09:52:33.855Z,51.30
2019-05-20T09:55:00.080Z,51.30
2019-05-20T09:57:26.301Z,51.30
2019-05-20T09:59:52.541Z,51.30
2019-05-20T10:02:18.767Z,51.20
2019-05-20T10:04:44.989Z,51.30
2019-05-20T10:07:11.213Z,51.40
2019-05-20T10:09:37.443Z,51.30
2019-05-20T10:12:03.773Z,51.30
2019-05-20T10:14:30.311Z,51.30
2019-05-20T10:16:56.545Z,51.40
2019-05-20T10:19:22.769Z,51.40
2019-05-20T10:21:49.009Z,51.40
2019-05-20T10:24:15.233Z,51.40
2019-05-20T10:26:41.463Z,51.40
2019-05-20T10:29:07.684Z,51.40
2019-05-20T10:31:33.916Z,51.40
2019-05-20T10:34:00.143Z,51.30
2019-05-20T10:36:26.389Z,51.30
2019-05-20T10:38:58.403Z,51.50
2019-05-20T10:41:19.659Z,51.50
2019-05-20T10:43:45.876Z,51.40
2019-05-20T10:46:12.102Z,51.50
2019-05-20T10:48:38.339Z,51.40
2019-05-20T10:51:04.549Z,51.40
2019-05-20T10:53:30.798Z,51.40
2019-05-20T10:55:57.274Z,51.30
2019-05-20T10:58:23.657Z,51.30
2019-05-20T11:01:01.734Z,51.40
2019-05-20T11:03:16.521Z,51.40
2019-05-20T11:05:43.983Z,51.30
2019-05-20T11:08:10.210Z,51.40
2019-05-20T11:10:36.442Z,51.30
2019-05-20T11:13:02.803Z,51.40
2019-05-20T11:15:28.893Z,51.40
2019-05-20T11:17:55.137Z,51.30
2019-05-20T11:20:21.361Z,51.40
2019-05-20T11:22:47.589Z,51.40
2019-05-20T11:25:13.810Z,51.30
2019-05-20T11:27:40.041Z,51.30
2019-05-20T11:30:06.287Z,51.30
2019-05-20T11:32:32.485Z,51.30
2019-05-20T11:34:58.725Z,51.30
2019-05-20T11:37:24.954Z,51.20
2019-05-20T11:39:51.182Z,51.20
2019-05-20T11:42:17.408Z,51.20
2019-05-20T11:44:43.643Z,51.20
2019-05-20T11:47:09.889Z,51.20
2019-05-20T11:49:36.100Z,51.90
2019-05-20T11:52:02.405Z,51.20
2019-05-20T11:54:28.993Z,51.20
2019-05-20T11:56:55.188Z,51.30
2019-05-20T11:59:21.417Z,51.20
2019-05-20T12:01:47.646Z,51.20
2019-05-20T12:04:13.879Z,51.20
2019-05-20T12:06:40.116Z,51.20
2019-05-20T12:09:06.332Z,51.30
2019-05-20T12:11:32.589Z,51.20
2019-05-20T12:14:00.031Z,51.20
2019-05-20T12:16:26.261Z,51.20
2019-05-20T12:18:52.477Z,51.20
2019-05-20T12:21:18.706Z,51.30
2019-05-20T12:23:44.929Z,51.20
2019-05-20T12:26:11.188Z,51.30
2019-05-20T12:28:37.395Z,51.30
2019-05-20T12:31:04.852Z,51.30
2019-05-20T12:33:31.081Z,51.30
2019-05-20T12:35:57.306Z,51.30
2019-05-20T12:38:23.531Z,51.40
2019-05-20T12:40:49.775Z,51.40
2019-05-20T12:43:15.996Z,51.40
2019-05-20T12:45:42.224Z,51.40
2019-05-20T12:48:08.458Z,51.40
2019-05-20T12:50:34.689Z,51.40
2019-05-20T12:53:00.911Z,51.40
2019-05-20T12:55:27.137Z,51.50
2019-05-20T12:57:53.371Z,51.50
2019-05-20T13:00:19.574Z,52.10
2019-05-20T13:02:45.753Z,51.50
2019-05-20T13:05:12.054Z,51.50
2019-05-20T13:07:38.276Z,51.50
2019-05-20T13:10:04.505Z,51.50
2019-05-20T13:12:30.743Z,51.50
2019-05-20T13:14:56.961Z,51.60
2019-05-20T13:17:23.251Z,51.50
2019-05-20T13:19:49.836Z,51.60
2019-05-20T13:22:16.057Z,51.60
2019-05-20T13:24:42.286Z,51.60
2019-05-20T13:27:08.829Z,51.60
2019-05-20T13:29:35.161Z,51.50
2019-05-20T13:32:01.400Z,51.50
2019-05-20T13:34:27.608Z,51.50
2019-05-20T13:36:53.847Z,51.60
2019-05-20T13:39:20.078Z,51.60
2019-05-20T13:41:46.288Z,51.60
2019-05-20T13:44:12.551Z,51.60
2019-05-20T13:46:38.767Z,51.60
2019-05-20T13:49:04.982Z,51.60
2019-05-20T13:51:31.210Z,51.70
2019-05-20T13:53:57.453Z,51.60
2019-05-20T13:56:23.686Z,51.70
2019-05-20T13:58:49.898Z,51.60
2019-05-20T14:01:16.137Z,51.70
2019-05-20T14:03:42.353Z,51.70
2019-05-20T14:06:08.580Z,51.70
2019-05-20T14:08:34.835Z,51.80
2019-05-20T14:11:04.288Z,51.80
2019-05-20T14:13:27.246Z,51.80
2019-05-20T14:15:53.428Z,51.90
2019-05-20T14:18:19.721Z,52.00
2019-05-20T14:20:45.952Z,51.90
2019-05-20T14:23:12.180Z,52.00
2019-05-20T14:25:38.411Z,51.90
2019-05-20T14:28:05.043Z,51.90
2019-05-20T14:30:31.283Z,52.00
2019-05-20T14:32:57.505Z,52.00
2019-05-20T14:35:23.733Z,52.00
2019-05-20T14:37:49.973Z,52.00
2019-05-20T14:40:16.196Z,52.10
2019-05-20T14:42:42.357Z,52.10
2019-05-20T14:45:08.645Z,52.00
2019-05-20T14:47:34.884Z,52.00
2019-05-20T14:50:01.113Z,52.10
2019-05-20T14:52:27.361Z,52.20
2019-05-20T14:54:54.793Z,52.30
2019-05-20T14:57:21.018Z,52.20
2019-05-20T14:59:47.245Z,52.10
2019-05-20T15:02:13.480Z,52.10
2019-05-20T15:04:39.698Z,52.10
2019-05-20T15:07:05.938Z,52.00
2019-05-20T15:09:32.178Z,52.10
2019-05-20T15:11:58.395Z,52.10
2019-05-20T15:14:24.623Z,52.10
2019-05-20T15:16:50.853Z,52.20
2019-05-20T15:19:17.109Z,52.10
2019-05-20T15:21:43.333Z,52.20
2019-05-20T15:24:09.578Z,52.20
2019-05-20T15:26:35.772Z,52.20
2019-05-20T15:29:03.303Z,52.30
2019-05-20T15:31:28.655Z,52.30
2019-05-20T15:33:54.866Z,52.20
2019-05-20T15:36:21.086Z,52.30
2019-05-20T15:38:47.328Z,52.40
2019-05-20T15:41:13.547Z,52.30
2019-05-20T15:43:39.866Z,52.20
2019-05-20T15:46:06.029Z,52.30
2019-05-20T15:48:32.239Z,52.40
2019-05-20T15:50:58.457Z,52.30
2019-05-20T15:53:24.698Z,52.30
2019-05-20T15:55:50.915Z,52.40
2019-05-20T15:58:17.152Z,52.40
2019-05-20T16:00:43.373Z,52.40
2019-05-20T16:03:09.605Z,52.50
2019-05-20T16:05:35.847Z,52.50
2019-05-20T16:08:02.320Z,52.40
2019-05-20T16:10:28.713Z,52.40
2019-05-20T16:12:54.926Z,52.60
2019-05-20T16:15:21.156Z,52.70
2019-05-20T16:17:48.441Z,52.50
2019-05-20T16:20:13.605Z,52.50
2019-05-20T16:22:39.842Z,52.50
2019-05-20T16:25:06.080Z,52.60
2019-05-20T16:27:32.916Z,52.60
2019-05-20T16:30:06.360Z,52.70
2019-05-20T16:32:24.802Z,52.70
2019-05-20T16:34:50.985Z,52.60
2019-05-20T16:37:17.225Z,52.60
2019-05-20T16:39:43.448Z,52.70
2019-05-20T16:42:09.684Z,52.80
2019-05-20T16:44:35.915Z,53.50
2019-05-20T16:47:02.131Z,52.80
2019-05-20T16:49:28.383Z,52.70
2019-05-20T16:51:54.592Z,52.70
2019-05-20T16:54:20.818Z,52.70
2019-05-20T16:56:47.047Z,52.70
2019-05-20T16:59:13.269Z,52.90
2019-05-20T17:01:46.341Z,52.70
2019-05-20T17:04:05.741Z,52.80
2019-05-20T17:06:31.948Z,52.80
2019-05-20T17:08:58.199Z,52.80
2019-05-20T17:11:24.413Z,52.80
2019-05-20T17:13:50.750Z,52.80
2019-05-20T17:16:16.911Z,52.90
2019-05-20T17:18:43.092Z,52.80
2019-05-20T17:21:09.327Z,52.90
2019-05-20T17:23:35.554Z,52.80
2019-05-20T17:26:01.792Z,52.80
2019-05-20T17:28:28.009Z,52.90
2019-05-20T17:30:54.253Z,53.00
2019-05-20T17:33:20.491Z,53.00
2019-05-20T17:35:46.713Z,53.10
2019-05-20T17:38:12.892Z,53.10
2019-05-20T17:40:39.153Z,53.00
2019-05-20T17:43:05.395Z,53.10
2019-05-20T17:45:31.612Z,53.10
2019-05-20T17:47:57.857Z,53.00
2019-05-20T17:50:24.083Z,53.00
2019-05-20T17:52:50.304Z,53.00
2019-05-20T17:55:16.521Z,53.10
2019-05-20T17:57:42.757Z,53.10
2019-05-20T18:00:08.983Z,53.10
2019-05-20T18:02:35.215Z,53.10
2019-05-20T18:05:01.437Z,53.20
2019-05-20T18:07:27.678Z,53.20
2019-05-20T18:09:53.885Z,53.10
2019-05-20T18:12:20.122Z,53.00
2019-05-20T18:14:46.358Z,53.10
2019-05-20T18:17:13.154Z,53.10
2019-05-20T18:19:38.815Z,53.10
2019-05-20T18:22:05.057Z,53.20
2019-05-20T18:24:31.264Z,53.10
2019-05-20T18:26:57.497Z,53.30
2019-05-20T18:29:23.733Z,53.40
2019-05-20T18:31:49.957Z,53.20
2019-05-20T18:34:16.120Z,53.30
2019-05-20T18:36:42.412Z,53.40
2019-05-20T18:39:08.642Z,53.30
2019-05-20T18:41:34.868Z,53.30
2019-05-20T18:44:01.087Z,53.40
2019-05-20T18:46:27.329Z,53.30
2019-05-20T18:48:53.554Z,53.50
2019-05-20T18:51:19.774Z,53.40
2019-05-20T18:53:46.021Z,53.40
2019-05-20T18:56:12.258Z,53.30
2019-05-20T18:58:38.466Z,53.50
2019-05-20T19:01:04.705Z,53.40
2019-05-20T19:03:31.311Z,53.40
2019-05-20T19:05:58.031Z,53.60
2019-05-20T19:08:25.669Z,53.50
2019-05-20T19:10:50.425Z,53.50
2019-05-20T19:13:16.659Z,53.60
2019-05-20T19:15:42.886Z,53.50
2019-05-20T19:18:09.117Z,53.50
2019-05-20T19:20:35.344Z,53.50
2019-05-20T19:23:01.610Z,53.50
2019-05-20T19:25:37.530Z,53.70
2019-05-20T19:27:54.016Z,53.70
2019-05-20T19:30:20.253Z,53.70
2019-05-20T19:32:46.477Z,53.60
2019-05-20T19:35:12.718Z,53.70
2019-05-20T19:37:39.090Z,53.70
2019-05-20T19:40:05.765Z,53.60
2019-05-20T19:42:31.819Z,53.50
2019-05-20T19:44:58.060Z,53.50
2019-05-20T19:47:24.256Z,53.50
2019-05-20T19:49:50.540Z,53.60
2019-05-20T19:52:16.717Z,53.60
2019-05-20T19:54:42.962Z,53.60
2019-05-20T19:57:09.176Z,53.60
2019-05-20T19:59:35.404Z,53.60
2019-05-20T20:02:15.133Z,53.50
2019-05-20T20:04:28.265Z,53.60
2019-05-20T20:06:54.502Z,53.50
2019-05-20T20:09:20.724Z,53.60
2019-05-20T20:11:46.953Z,53.50
2019-05-20T20:14:13.196Z,53.50
2019-05-20T20:16:39.411Z,53.60
2019-05-20T20:19:05.637Z,53.50
2019-05-20T20:21:31.888Z,53.60
2019-05-20T20:23:58.148Z,53.60
2019-05-20T20:26:24.344Z,54.30
2019-05-20T20:28:51.794Z,53.90
2019-05-20T20:31:18.009Z,53.60
2019-05-20T20:33:44.233Z,53.70
2019-05-20T20:36:10.480Z,53.70
2019-05-20T20:38:36.699Z,53.70
2019-05-20T20:41:02.933Z,53.70
2019-05-20T20:43:32.103Z,53.70
2019-05-20T20:45:55.382Z,53.70
2019-05-20T20:48:21.606Z,53.70
2019-05-20T20:50:47.837Z,53.70
2019-05-20T20:53:14.058Z,53.80
2019-05-20T20:55:40.209Z,53.70
2019-05-20T20:58:06.360Z,53.80
2019-05-20T21:00:32.761Z,53.80
2019-05-20T21:02:58.977Z,53.70
2019-05-20T21:05:25.209Z,53.80
2019-05-20T21:07:51.857Z,53.90
2019-05-20T21:10:17.663Z,53.90
2019-05-20T21:12:43.893Z,53.90
2019-05-20T21:15:10.120Z,53.80
2019-05-20T21:17:36.344Z,53.90
2019-05-20T21:20:02.587Z,53.90
2019-05-20T21:22:28.741Z,53.90
2019-05-20T21:24:55.039Z,54.00
2019-05-20T21:27:21.266Z,54.00
2019-05-20T21:29:47.526Z,53.90
2019-05-20T21:32:13.717Z,54.00
2019-05-20T21:34:39.948Z,54.00
2019-05-20T21:37:06.172Z,54.10
2019-05-20T21:39:32.422Z,54.10
2019-05-20T21:41:58.658Z,54.00
2019-05-20T21:44:24.869Z,54.00
2019-05-20T21:46:51.094Z,53.90
2019-05-20T21:49:17.323Z,54.00
2019-05-20T21:51:43.640Z,54.00
2019-05-20T21:54:10.173Z,54.10
2019-05-20T21:56:36.412Z,54.00
2019-05-20T21:59:02.644Z,54.10
2019-05-20T22:01:28.864Z,54.10
2019-05-20T22:03:55.092Z,54.10
2019-05-20T22:06:21.321Z,54.10
2019-05-20T22:08:47.546Z,54.00
2019-05-20T22:11:13.780Z,54.10
2019-05-20T22:13:40.007Z,54.10
2019-05-20T22:16:06.232Z,54.10
2019-05-20T22:18:32.464Z,54.10
2019-05-20T22:20:58.743Z,54.10
2019-05-20T22:23:24.917Z,54.10
2019-05-20T22:25:51.147Z,54.10
2019-05-20T22:28:17.388Z,54.10
2019-05-20T22:30:43.608Z,54.20
2019-05-20T22:33:09.825Z,54.20
2019-05-20T22:35:36.058Z,54.20
2019-05-20T22:38:02.283Z,54.20
2019-05-20T22:40:28.513Z,54.20
2019-05-20T22:42:54.735Z,54.10
2019-05-20T22:45:20.965Z,54.20
2019-05-20T22:47:47.193Z,54.20
2019-05-20T22:50:13.420Z,54.30
2019-05-20T22:52:39.652Z,54.20
2019-05-20T22:55:05.877Z,54.20
2019-05-20T22:57:32.103Z,54.20
2019-05-20T22:59:58.348Z,54.20
2019-05-20T23:02:24.564Z,54.10
2019-05-20T23:04:50.795Z,54.20
2019-05-20T23:07:17.014Z,54.10
2019-05-20T23:09:43.244Z,54.20
2019-05-20T23:12:09.472Z,54.20
2019-05-20T23:14:35.696Z,54.10
2019-05-20T23:17:01.937Z,54.20
2019-05-20T23:19:28.169Z,54.30
2019-05-20T23:21:54.376Z,54.20
2019-05-20T23:24:20.609Z,54.20
2019-05-20T23:26:46.836Z,54.20
2019-05-20T23:29:13.083Z,54.30
2019-05-20T23:31:39.312Z,54.30
2019-05-20T23:34:12.864Z,54.30
2019-05-20T23:36:32.987Z,54.20
2019-05-20T23:38:59.200Z,54.20
2019-05-20T23:41:25.446Z,54.10
2019-05-20T23:43:51.665Z,54.10
2019-05-20T23:46:17.892Z,54.30
2019-05-20T23:48:44.120Z,54.30
2019-05-20T23:51:10.348Z,54.30
2019-05-20T23:53:36.573Z,54.20
2019-05-20T23:56:02.816Z,54.60
2019-05-20T23:58:28.985Z,54.60
